sensor_id;sensor_type;location;lat;lon;timestamp;temperature;humidity
37232;DHT22;23125;48.156;15.954;2022-11-21T00:00:46;6.90;65.10
37232;DHT22;23125;48.156;15.954;2022-11-21T00:03:13;6.90;65.10
37232;DHT22;23125;48.156;15.954;2022-11-21T00:05:41;6.80;65.00
37232;DHT22;23125;48.156;15.954;2022-11-21T00:08:09;6.80;64.90
37232;DHT22;23125;48.156;15.954;2022-11-21T00:10:36;6.80;64.90
37232;DHT22;23125;48.156;15.954;2022-11-21T00:13:03;6.70;64.80
37232;DHT22;23125;48.156;15.954;2022-11-21T00:15:30;6.70;64.70
37232;DHT22;23125;48.156;15.954;2022-11-21T00:17:56;6.70;64.70
37232;DHT22;23125;48.156;15.954;2022-11-21T00:20:22;6.70;64.70
37232;DHT22;23125;48.156;15.954;2022-11-21T00:22:48;6.60;64.60
37232;DHT22;23125;48.156;15.954;2022-11-21T00:25:15;6.60;64.60
37232;DHT22;23125;48.156;15.954;2022-11-21T00:27:41;6.50;64.50
37232;DHT22;23125;48.156;15.954;2022-11-21T00:30:09;6.50;64.50
37232;DHT22;23125;48.156;15.954;2022-11-21T00:32:35;6.50;64.50
37232;DHT22;23125;48.156;15.954;2022-11-21T00:35:01;6.40;64.40
37232;DHT22;23125;48.156;15.954;2022-11-21T00:37:27;6.40;64.40
37232;DHT22;23125;48.156;15.954;2022-11-21T00:39:53;6.40;64.40
37232;DHT22;23125;48.156;15.954;2022-11-21T00:42:19;6.30;64.40
37232;DHT22;23125;48.156;15.954;2022-11-21T00:44:45;6.30;64.50
37232;DHT22;23125;48.156;15.954;2022-11-21T00:47:11;6.30;64.60
37232;DHT22;23125;48.156;15.954;2022-11-21T00:49:36;6.30;64.70
37232;DHT22;23125;48.156;15.954;2022-11-21T00:52:02;6.20;64.70
37232;DHT22;23125;48.156;15.954;2022-11-21T00:54:28;6.20;64.60
37232;DHT22;23125;48.156;15.954;2022-11-21T00:56:54;6.20;64.60
37232;DHT22;23125;48.156;15.954;2022-11-21T00:59:20;6.20;64.50
37232;DHT22;23125;48.156;15.954;2022-11-21T01:01:46;6.10;64.40
37232;DHT22;23125;48.156;15.954;2022-11-21T01:04:12;6.10;64.40
37232;DHT22;23125;48.156;15.954;2022-11-21T01:06:37;6.10;64.40
37232;DHT22;23125;48.156;15.954;2022-11-21T01:09:04;6.10;64.40
37232;DHT22;23125;48.156;15.954;2022-11-21T01:11:30;6.00;65.00
37232;DHT22;23125;48.156;15.954;2022-11-21T01:13:57;6.00;64.40
37232;DHT22;23125;48.156;15.954;2022-11-21T01:16:25;6.00;64.40
37232;DHT22;23125;48.156;15.954;2022-11-21T01:18:52;5.90;64.40
37232;DHT22;23125;48.156;15.954;2022-11-21T01:21:23;5.90;64.30
37232;DHT22;23125;48.156;15.954;2022-11-21T01:23:49;5.90;64.30
37232;DHT22;23125;48.156;15.954;2022-11-21T01:26:17;5.80;64.30
37232;DHT22;23125;48.156;15.954;2022-11-21T01:28:44;5.80;64.20
37232;DHT22;23125;48.156;15.954;2022-11-21T01:31:19;5.80;64.30
37232;DHT22;23125;48.156;15.954;2022-11-21T01:33:46;5.80;64.20
37232;DHT22;23125;48.156;15.954;2022-11-21T01:36:16;5.70;64.20
37232;DHT22;23125;48.156;15.954;2022-11-21T01:38:45;5.70;64.20
37232;DHT22;23125;48.156;15.954;2022-11-21T01:41:14;5.60;64.20
37232;DHT22;23125;48.156;15.954;2022-11-21T01:43:40;5.60;64.30
37232;DHT22;23125;48.156;15.954;2022-11-21T01:51:49;5.60;64.70
37232;DHT22;23125;48.156;15.954;2022-11-21T01:54:21;5.50;64.70
37232;DHT22;23125;48.156;15.954;2022-11-21T01:59:52;5.50;64.90
37232;DHT22;23125;48.156;15.954;2022-11-21T02:02:24;5.40;64.90
37232;DHT22;23125;48.156;15.954;2022-11-21T02:04:52;5.50;64.90
37232;DHT22;23125;48.156;15.954;2022-11-21T02:07:21;5.50;64.80
37232;DHT22;23125;48.156;15.954;2022-11-21T02:09:52;5.50;64.80
37232;DHT22;23125;48.156;15.954;2022-11-21T02:14:54;5.40;64.60
37232;DHT22;23125;48.156;15.954;2022-11-21T02:17:20;5.40;64.60
37232;DHT22;23125;48.156;15.954;2022-11-21T02:19:54;5.40;64.60
37232;DHT22;23125;48.156;15.954;2022-11-21T02:22:38;5.40;64.60
37232;DHT22;23125;48.156;15.954;2022-11-21T02:25:16;5.40;64.60
37232;DHT22;23125;48.156;15.954;2022-11-21T02:27:42;5.40;64.60
37232;DHT22;23125;48.156;15.954;2022-11-21T02:30:09;5.30;64.60
37232;DHT22;23125;48.156;15.954;2022-11-21T02:32:42;5.30;64.70
37232;DHT22;23125;48.156;15.954;2022-11-21T02:35:13;5.30;64.70
37232;DHT22;23125;48.156;15.954;2022-11-21T02:37:40;5.30;64.70
37232;DHT22;23125;48.156;15.954;2022-11-21T02:40:21;5.30;64.70
37232;DHT22;23125;48.156;15.954;2022-11-21T02:45:39;5.30;64.90
37232;DHT22;23125;48.156;15.954;2022-11-21T02:48:06;5.30;64.90
37232;DHT22;23125;48.156;15.954;2022-11-21T02:50:34;5.30;65.10
37232;DHT22;23125;48.156;15.954;2022-11-21T02:53:00;5.40;65.20
37232;DHT22;23125;48.156;15.954;2022-11-21T02:55:26;5.40;65.30
37232;DHT22;23125;48.156;15.954;2022-11-21T02:57:53;5.40;65.40
37232;DHT22;23125;48.156;15.954;2022-11-21T03:00:20;5.40;65.40
37232;DHT22;23125;48.156;15.954;2022-11-21T03:02:46;5.40;65.40
37232;DHT22;23125;48.156;15.954;2022-11-21T03:05:14;5.40;65.40
37232;DHT22;23125;48.156;15.954;2022-11-21T03:07:40;5.40;65.50
37232;DHT22;23125;48.156;15.954;2022-11-21T03:10:07;5.50;65.60
37232;DHT22;23125;48.156;15.954;2022-11-21T03:12:37;5.50;65.60
37232;DHT22;23125;48.156;15.954;2022-11-21T03:15:04;5.50;65.70
37232;DHT22;23125;48.156;15.954;2022-11-21T03:17:32;5.50;65.80
37232;DHT22;23125;48.156;15.954;2022-11-21T03:19:58;5.60;65.80
37232;DHT22;23125;48.156;15.954;2022-11-21T03:22:24;5.60;65.90
37232;DHT22;23125;48.156;15.954;2022-11-21T03:24:50;5.60;65.90
37232;DHT22;23125;48.156;15.954;2022-11-21T03:27:16;5.70;65.90
37232;DHT22;23125;48.156;15.954;2022-11-21T03:29:42;5.70;65.90
37232;DHT22;23125;48.156;15.954;2022-11-21T03:32:08;5.70;65.80
37232;DHT22;23125;48.156;15.954;2022-11-21T03:34:34;5.80;65.90
37232;DHT22;23125;48.156;15.954;2022-11-21T03:37:00;5.80;65.80
37232;DHT22;23125;48.156;15.954;2022-11-21T03:39:26;5.80;65.80
37232;DHT22;23125;48.156;15.954;2022-11-21T03:41:53;5.80;65.90
37232;DHT22;23125;48.156;15.954;2022-11-21T03:44:18;5.90;66.00
37232;DHT22;23125;48.156;15.954;2022-11-21T03:46:45;5.90;65.90
37232;DHT22;23125;48.156;15.954;2022-11-21T03:49:12;5.90;65.90
37232;DHT22;23125;48.156;15.954;2022-11-21T03:51:39;5.90;65.90
37232;DHT22;23125;48.156;15.954;2022-11-21T03:54:05;5.90;65.90
37232;DHT22;23125;48.156;15.954;2022-11-21T03:56:32;5.90;65.90
37232;DHT22;23125;48.156;15.954;2022-11-21T03:58:58;6.00;66.00
37232;DHT22;23125;48.156;15.954;2022-11-21T04:01:24;6.00;66.10
37232;DHT22;23125;48.156;15.954;2022-11-21T04:03:50;6.00;66.10
37232;DHT22;23125;48.156;15.954;2022-11-21T04:06:19;6.00;66.10
37232;DHT22;23125;48.156;15.954;2022-11-21T04:08:46;6.00;66.60
37232;DHT22;23125;48.156;15.954;2022-11-21T04:11:12;6.10;66.10
37232;DHT22;23125;48.156;15.954;2022-11-21T04:13:38;6.00;66.10
37232;DHT22;23125;48.156;15.954;2022-11-21T04:16:04;6.10;66.10
37232;DHT22;23125;48.156;15.954;2022-11-21T04:18:30;6.10;66.20
37232;DHT22;23125;48.156;15.954;2022-11-21T04:20:59;6.10;66.50
37232;DHT22;23125;48.156;15.954;2022-11-21T04:23:26;6.20;66.70
37232;DHT22;23125;48.156;15.954;2022-11-21T04:25:52;6.20;66.80
37232;DHT22;23125;48.156;15.954;2022-11-21T04:28:19;6.30;67.00
37232;DHT22;23125;48.156;15.954;2022-11-21T04:30:45;6.30;67.00
37232;DHT22;23125;48.156;15.954;2022-11-21T04:33:13;6.40;67.00
37232;DHT22;23125;48.156;15.954;2022-11-21T04:35:39;6.40;67.00
37232;DHT22;23125;48.156;15.954;2022-11-21T04:38:05;6.40;67.00
37232;DHT22;23125;48.156;15.954;2022-11-21T04:40:31;6.50;67.80
37232;DHT22;23125;48.156;15.954;2022-11-21T04:42:57;6.60;67.30
37232;DHT22;23125;48.156;15.954;2022-11-21T04:45:23;6.60;67.40
37232;DHT22;23125;48.156;15.954;2022-11-21T04:47:48;6.70;67.40
37232;DHT22;23125;48.156;15.954;2022-11-21T04:50:16;6.70;67.40
37232;DHT22;23125;48.156;15.954;2022-11-21T04:52:52;6.80;67.40
37232;DHT22;23125;48.156;15.954;2022-11-21T04:55:20;6.90;67.60
37232;DHT22;23125;48.156;15.954;2022-11-21T04:57:47;6.90;67.70
37232;DHT22;23125;48.156;15.954;2022-11-21T05:00:14;7.00;67.70
37232;DHT22;23125;48.156;15.954;2022-11-21T05:02:40;7.00;67.70
37232;DHT22;23125;48.156;15.954;2022-11-21T05:05:07;7.10;67.80
37232;DHT22;23125;48.156;15.954;2022-11-21T05:07:33;7.10;67.70
37232;DHT22;23125;48.156;15.954;2022-11-21T05:09:59;7.20;67.70
37232;DHT22;23125;48.156;15.954;2022-11-21T05:12:24;7.20;67.70
37232;DHT22;23125;48.156;15.954;2022-11-21T05:15:09;7.30;67.70
37232;DHT22;23125;48.156;15.954;2022-11-21T05:17:36;7.30;67.60
37232;DHT22;23125;48.156;15.954;2022-11-21T05:20:02;7.40;67.70
37232;DHT22;23125;48.156;15.954;2022-11-21T05:22:28;7.40;67.70
37232;DHT22;23125;48.156;15.954;2022-11-21T05:24:54;7.40;67.70
37232;DHT22;23125;48.156;15.954;2022-11-21T05:27:20;7.50;67.70
37232;DHT22;23125;48.156;15.954;2022-11-21T05:29:46;7.50;67.70
37232;DHT22;23125;48.156;15.954;2022-11-21T05:32:12;7.50;67.70
37232;DHT22;23125;48.156;15.954;2022-11-21T05:34:37;7.60;67.80
37232;DHT22;23125;48.156;15.954;2022-11-21T05:37:03;7.60;67.70
37232;DHT22;23125;48.156;15.954;2022-11-21T05:39:29;7.60;67.60
37232;DHT22;23125;48.156;15.954;2022-11-21T05:41:55;7.60;67.60
37232;DHT22;23125;48.156;15.954;2022-11-21T05:44:21;7.70;67.60
37232;DHT22;23125;48.156;15.954;2022-11-21T05:46:47;7.70;67.60
37232;DHT22;23125;48.156;15.954;2022-11-21T05:49:13;7.70;67.50
37232;DHT22;23125;48.156;15.954;2022-11-21T05:51:39;7.70;67.40
37232;DHT22;23125;48.156;15.954;2022-11-21T05:54:05;7.70;67.40
37232;DHT22;23125;48.156;15.954;2022-11-21T05:56:31;7.70;67.40
37232;DHT22;23125;48.156;15.954;2022-11-21T05:58:57;7.80;67.50
37232;DHT22;23125;48.156;15.954;2022-11-21T06:01:24;7.80;67.50
37232;DHT22;23125;48.156;15.954;2022-11-21T06:04:09;7.70;67.40
37232;DHT22;23125;48.156;15.954;2022-11-21T06:06:36;7.80;67.40
37232;DHT22;23125;48.156;15.954;2022-11-21T06:09:03;7.70;67.40
37232;DHT22;23125;48.156;15.954;2022-11-21T06:11:29;7.80;67.50
37232;DHT22;23125;48.156;15.954;2022-11-21T06:13:55;7.80;67.50
37232;DHT22;23125;48.156;15.954;2022-11-21T06:16:21;7.80;67.60
37232;DHT22;23125;48.156;15.954;2022-11-21T06:18:49;7.80;67.60
37232;DHT22;23125;48.156;15.954;2022-11-21T06:21:22;7.80;67.70
37232;DHT22;23125;48.156;15.954;2022-11-21T06:23:50;7.80;67.60
37232;DHT22;23125;48.156;15.954;2022-11-21T06:26:19;7.90;67.70
37232;DHT22;23125;48.156;15.954;2022-11-21T06:28:46;7.80;67.70
37232;DHT22;23125;48.156;15.954;2022-11-21T06:31:14;7.90;67.90
37232;DHT22;23125;48.156;15.954;2022-11-21T06:33:42;7.90;67.90
37232;DHT22;23125;48.156;15.954;2022-11-21T06:36:17;7.90;67.90
37232;DHT22;23125;48.156;15.954;2022-11-21T06:38:44;7.90;68.00
37232;DHT22;23125;48.156;15.954;2022-11-21T06:41:12;8.00;68.00
37232;DHT22;23125;48.156;15.954;2022-11-21T06:43:39;7.90;68.00
37232;DHT22;23125;48.156;15.954;2022-11-21T06:46:05;8.00;68.10
37232;DHT22;23125;48.156;15.954;2022-11-21T06:48:32;8.00;68.10
37232;DHT22;23125;48.156;15.954;2022-11-21T06:51:03;8.00;68.10
37232;DHT22;23125;48.156;15.954;2022-11-21T06:53:29;8.10;68.20
37232;DHT22;23125;48.156;15.954;2022-11-21T06:55:58;8.10;68.10
37232;DHT22;23125;48.156;15.954;2022-11-21T06:58:25;8.10;68.20
37232;DHT22;23125;48.156;15.954;2022-11-21T07:00:50;8.10;68.20
37232;DHT22;23125;48.156;15.954;2022-11-21T07:03:16;8.20;68.30
37232;DHT22;23125;48.156;15.954;2022-11-21T07:05:43;8.20;68.30
37232;DHT22;23125;48.156;15.954;2022-11-21T07:08:08;8.20;68.30
37232;DHT22;23125;48.156;15.954;2022-11-21T07:10:35;8.30;68.40
37232;DHT22;23125;48.156;15.954;2022-11-21T07:13:00;8.30;68.40
37232;DHT22;23125;48.156;15.954;2022-11-21T07:15:46;8.30;68.40
37232;DHT22;23125;48.156;15.954;2022-11-21T07:18:13;8.40;68.40
37232;DHT22;23125;48.156;15.954;2022-11-21T07:20:39;8.40;68.40
37232;DHT22;23125;48.156;15.954;2022-11-21T07:23:06;8.40;68.50
37232;DHT22;23125;48.156;15.954;2022-11-21T07:25:33;8.50;68.60
37232;DHT22;23125;48.156;15.954;2022-11-21T07:28:00;8.50;68.50
37232;DHT22;23125;48.156;15.954;2022-11-21T07:30:27;8.50;68.60
37232;DHT22;23125;48.156;15.954;2022-11-21T07:33:02;8.60;68.60
37232;DHT22;23125;48.156;15.954;2022-11-21T07:35:28;8.60;68.60
37232;DHT22;23125;48.156;15.954;2022-11-21T07:37:54;8.70;68.70
37232;DHT22;23125;48.156;15.954;2022-11-21T07:40:21;8.70;68.70
37232;DHT22;23125;48.156;15.954;2022-11-21T07:42:47;8.70;68.60
37232;DHT22;23125;48.156;15.954;2022-11-21T07:45:13;8.80;68.70
37232;DHT22;23125;48.156;15.954;2022-11-21T07:47:40;8.80;68.80
37232;DHT22;23125;48.156;15.954;2022-11-21T07:50:08;8.80;68.80
37232;DHT22;23125;48.156;15.954;2022-11-21T07:52:35;8.90;68.90
37232;DHT22;23125;48.156;15.954;2022-11-21T07:55:02;9.00;69.00
37232;DHT22;23125;48.156;15.954;2022-11-21T07:57:31;9.00;68.90
37232;DHT22;23125;48.156;15.954;2022-11-21T07:59:57;9.00;68.90
37232;DHT22;23125;48.156;15.954;2022-11-21T08:02:25;9.10;68.90
37232;DHT22;23125;48.156;15.954;2022-11-21T08:04:51;9.10;68.80
37232;DHT22;23125;48.156;15.954;2022-11-21T08:07:20;9.20;69.00
37232;DHT22;23125;48.156;15.954;2022-11-21T08:09:47;9.20;69.60
37232;DHT22;23125;48.156;15.954;2022-11-21T08:12:13;9.30;69.00
37232;DHT22;23125;48.156;15.954;2022-11-21T08:14:39;9.30;69.00
37232;DHT22;23125;48.156;15.954;2022-11-21T08:17:05;9.40;68.90
37232;DHT22;23125;48.156;15.954;2022-11-21T08:19:32;9.40;68.80
37232;DHT22;23125;48.156;15.954;2022-11-21T08:21:58;9.50;68.80
37232;DHT22;23125;48.156;15.954;2022-11-21T08:24:24;9.50;68.80
37232;DHT22;23125;48.156;15.954;2022-11-21T08:26:51;9.60;68.70
37232;DHT22;23125;48.156;15.954;2022-11-21T08:29:17;9.60;68.70
37232;DHT22;23125;48.156;15.954;2022-11-21T08:31:43;9.60;68.50
37232;DHT22;23125;48.156;15.954;2022-11-21T08:34:10;9.60;68.50
37232;DHT22;23125;48.156;15.954;2022-11-21T08:36:37;9.70;68.50
37232;DHT22;23125;48.156;15.954;2022-11-21T08:39:03;9.80;68.70
37232;DHT22;23125;48.156;15.954;2022-11-21T08:41:29;9.80;68.70
37232;DHT22;23125;48.156;15.954;2022-11-21T08:44:13;9.90;68.80
37232;DHT22;23125;48.156;15.954;2022-11-21T08:46:40;9.90;68.80
37232;DHT22;23125;48.156;15.954;2022-11-21T08:49:06;10.00;68.80
37232;DHT22;23125;48.156;15.954;2022-11-21T08:51:33;10.00;68.80
37232;DHT22;23125;48.156;15.954;2022-11-21T08:53:59;10.10;68.90
37232;DHT22;23125;48.156;15.954;2022-11-21T08:56:26;10.20;69.20
37232;DHT22;23125;48.156;15.954;2022-11-21T08:58:52;10.30;69.40
37232;DHT22;23125;48.156;15.954;2022-11-21T09:01:18;10.40;69.50
37232;DHT22;23125;48.156;15.954;2022-11-21T09:03:44;10.60;70.10
37232;DHT22;23125;48.156;15.954;2022-11-21T09:06:10;10.60;69.50
37232;DHT22;23125;48.156;15.954;2022-11-21T09:08:36;10.80;69.30
37232;DHT22;23125;48.156;15.954;2022-11-21T09:11:07;10.80;68.90
37232;DHT22;23125;48.156;15.954;2022-11-21T09:13:34;10.90;68.60
37232;DHT22;23125;48.156;15.954;2022-11-21T09:16:01;11.00;68.40
37232;DHT22;23125;48.156;15.954;2022-11-21T09:18:46;11.00;68.30
37232;DHT22;23125;48.156;15.954;2022-11-21T09:21:16;11.10;68.30
37232;DHT22;23125;48.156;15.954;2022-11-21T09:23:43;11.10;68.00
37232;DHT22;23125;48.156;15.954;2022-11-21T09:26:10;11.20;68.00
37232;DHT22;23125;48.156;15.954;2022-11-21T09:28:37;11.20;67.80
37232;DHT22;23125;48.156;15.954;2022-11-21T09:31:04;11.30;67.50
37232;DHT22;23125;48.156;15.954;2022-11-21T09:33:30;11.30;67.40
37232;DHT22;23125;48.156;15.954;2022-11-21T09:36:00;11.20;66.80
37232;DHT22;23125;48.156;15.954;2022-11-21T09:38:26;11.20;66.80
37232;DHT22;23125;48.156;15.954;2022-11-21T09:44:18;11.30;66.80
37232;DHT22;23125;48.156;15.954;2022-11-21T09:46:49;11.30;66.50
37232;DHT22;23125;48.156;15.954;2022-11-21T09:49:21;11.30;66.80
37232;DHT22;23125;48.156;15.954;2022-11-21T09:51:50;11.30;66.80
37232;DHT22;23125;48.156;15.954;2022-11-21T09:54:29;11.30;66.80
37232;DHT22;23125;48.156;15.954;2022-11-21T09:56:56;11.30;66.70
37232;DHT22;23125;48.156;15.954;2022-11-21T09:59:35;11.40;66.90
37232;DHT22;23125;48.156;15.954;2022-11-21T10:02:09;11.40;66.90
37232;DHT22;23125;48.156;15.954;2022-11-21T10:04:37;11.50;66.90
37232;DHT22;23125;48.156;15.954;2022-11-21T10:07:06;11.50;66.80
37232;DHT22;23125;48.156;15.954;2022-11-21T10:12:32;11.60;66.80
37232;DHT22;23125;48.156;15.954;2022-11-21T10:20:21;11.80;66.40
37232;DHT22;23125;48.156;15.954;2022-11-21T10:25:37;11.80;66.00
37232;DHT22;23125;48.156;15.954;2022-11-21T10:28:35;11.80;65.90
37232;DHT22;23125;48.156;15.954;2022-11-21T10:31:09;11.80;65.60
37232;DHT22;23125;48.156;15.954;2022-11-21T10:33:36;11.80;65.20
37232;DHT22;23125;48.156;15.954;2022-11-21T10:38:47;11.70;64.90
37232;DHT22;23125;48.156;15.954;2022-11-21T10:44:20;11.70;65.10
37232;DHT22;23125;48.156;15.954;2022-11-21T10:47:20;11.70;65.00
37232;DHT22;23125;48.156;15.954;2022-11-21T10:50:15;11.70;65.10
37232;DHT22;23125;48.156;15.954;2022-11-21T10:55:18;11.70;65.10
37232;DHT22;23125;48.156;15.954;2022-11-21T10:57:49;11.70;65.10
37232;DHT22;23125;48.156;15.954;2022-11-21T11:00:20;11.70;64.90
37232;DHT22;23125;48.156;15.954;2022-11-21T11:05:28;11.70;64.70
37232;DHT22;23125;48.156;15.954;2022-11-21T11:08:12;11.60;64.30
37232;DHT22;23125;48.156;15.954;2022-11-21T11:10:40;11.60;64.00
37232;DHT22;23125;48.156;15.954;2022-11-21T11:13:25;11.50;63.70
37232;DHT22;23125;48.156;15.954;2022-11-21T11:18:31;11.40;64.00
37232;DHT22;23125;48.156;15.954;2022-11-21T11:23:36;11.40;64.50
37232;DHT22;23125;48.156;15.954;2022-11-21T11:26:02;11.40;64.40
37232;DHT22;23125;48.156;15.954;2022-11-21T11:28:42;11.30;64.50
37232;DHT22;23125;48.156;15.954;2022-11-21T11:31:08;11.30;64.50
37232;DHT22;23125;48.156;15.954;2022-11-21T11:38:40;11.30;64.50
37232;DHT22;23125;48.156;15.954;2022-11-21T11:44:35;11.30;64.30
37232;DHT22;23125;48.156;15.954;2022-11-21T11:47:23;11.30;64.40
37232;DHT22;23125;48.156;15.954;2022-11-21T12:00:49;11.40;64.10
37232;DHT22;23125;48.156;15.954;2022-11-21T12:03:33;11.40;64.20
37232;DHT22;23125;48.156;15.954;2022-11-21T12:06:15;11.40;64.00
37232;DHT22;23125;48.156;15.954;2022-11-21T12:09:04;11.40;64.00
37232;DHT22;23125;48.156;15.954;2022-11-21T12:23:47;11.40;63.60
37232;DHT22;23125;48.156;15.954;2022-11-21T12:45:28;11.30;63.50
37232;DHT22;23125;48.156;15.954;2022-11-21T12:59:30;11.40;63.40
37232;DHT22;23125;48.156;15.954;2022-11-21T13:02:06;11.40;63.40
37232;DHT22;23125;48.156;15.954;2022-11-21T13:04:39;11.40;63.40
37232;DHT22;23125;48.156;15.954;2022-11-21T13:07:06;11.40;63.20
37232;DHT22;23125;48.156;15.954;2022-11-21T13:09:46;11.40;63.10
37232;DHT22;23125;48.156;15.954;2022-11-21T13:12:21;11.40;63.00
37232;DHT22;23125;48.156;15.954;2022-11-21T13:25:12;11.50;62.60
37232;DHT22;23125;48.156;15.954;2022-11-21T13:36:06;11.50;62.80
37232;DHT22;23125;48.156;15.954;2022-11-21T13:46:58;11.50;62.60
37232;DHT22;23125;48.156;15.954;2022-11-21T13:49:33;11.50;62.60
37232;DHT22;23125;48.156;15.954;2022-11-21T13:55:12;11.50;62.30
37232;DHT22;23125;48.156;15.954;2022-11-21T14:08:18;11.60;62.40
37232;DHT22;23125;48.156;15.954;2022-11-21T14:10:46;11.60;62.20
37232;DHT22;23125;48.156;15.954;2022-11-21T14:13:33;11.50;61.80
37232;DHT22;23125;48.156;15.954;2022-11-21T14:16:26;11.50;61.70
37232;DHT22;23125;48.156;15.954;2022-11-21T14:18:54;11.50;61.50
37232;DHT22;23125;48.156;15.954;2022-11-21T14:21:26;11.40;61.50
37232;DHT22;23125;48.156;15.954;2022-11-21T14:23:59;11.40;61.60
37232;DHT22;23125;48.156;15.954;2022-11-21T14:26:37;11.40;61.50
37232;DHT22;23125;48.156;15.954;2022-11-21T14:29:17;11.30;61.30
37232;DHT22;23125;48.156;15.954;2022-11-21T14:31:45;11.30;61.20
37232;DHT22;23125;48.156;15.954;2022-11-21T14:34:11;11.30;61.20
37232;DHT22;23125;48.156;15.954;2022-11-21T14:36:37;11.20;61.10
37232;DHT22;23125;48.156;15.954;2022-11-21T14:39:15;11.20;61.10
37232;DHT22;23125;48.156;15.954;2022-11-21T14:41:47;11.10;61.00
37232;DHT22;23125;48.156;15.954;2022-11-21T14:44:16;11.10;60.90
37232;DHT22;23125;48.156;15.954;2022-11-21T14:46:43;11.10;60.90
37232;DHT22;23125;48.156;15.954;2022-11-21T14:51:53;11.00;60.80
37232;DHT22;23125;48.156;15.954;2022-11-21T14:54:25;10.90;60.70
37232;DHT22;23125;48.156;15.954;2022-11-21T14:57:00;10.90;60.60
37232;DHT22;23125;48.156;15.954;2022-11-21T14:59:33;10.80;60.60
37232;DHT22;23125;48.156;15.954;2022-11-21T15:02:05;10.70;60.30
37232;DHT22;23125;48.156;15.954;2022-11-21T15:04:33;10.70;60.30
37232;DHT22;23125;48.156;15.954;2022-11-21T15:07:01;10.60;60.20
37232;DHT22;23125;48.156;15.954;2022-11-21T15:09:27;10.50;60.00
37232;DHT22;23125;48.156;15.954;2022-11-21T15:12:03;10.40;60.00
37232;DHT22;23125;48.156;15.954;2022-11-21T15:14:43;10.30;60.10
37232;DHT22;23125;48.156;15.954;2022-11-21T15:17:13;10.20;60.10
37232;DHT22;23125;48.156;15.954;2022-11-21T15:19:41;10.10;60.10
37232;DHT22;23125;48.156;15.954;2022-11-21T15:22:31;10.10;60.10
37232;DHT22;23125;48.156;15.954;2022-11-21T15:27:33;9.90;60.00
37232;DHT22;23125;48.156;15.954;2022-11-21T15:30:01;9.90;60.00
37232;DHT22;23125;48.156;15.954;2022-11-21T15:32:27;9.80;60.00
37232;DHT22;23125;48.156;15.954;2022-11-21T15:34:52;9.70;60.00
37232;DHT22;23125;48.156;15.954;2022-11-21T15:37:18;9.70;60.00
37232;DHT22;23125;48.156;15.954;2022-11-21T15:39:46;9.60;60.00
37232;DHT22;23125;48.156;15.954;2022-11-21T15:42:48;9.50;59.80
37232;DHT22;23125;48.156;15.954;2022-11-21T15:47:40;9.30;59.90
37232;DHT22;23125;48.156;15.954;2022-11-21T15:50:06;9.30;59.90
37232;DHT22;23125;48.156;15.954;2022-11-21T15:52:46;9.20;59.90
37232;DHT22;23125;48.156;15.954;2022-11-21T15:55:21;9.10;59.90
37232;DHT22;23125;48.156;15.954;2022-11-21T15:57:47;9.10;59.90
37232;DHT22;23125;48.156;15.954;2022-11-21T16:00:14;9.00;59.90
37232;DHT22;23125;48.156;15.954;2022-11-21T16:02:40;8.90;59.80
37232;DHT22;23125;48.156;15.954;2022-11-21T16:05:10;8.90;59.90
37232;DHT22;23125;48.156;15.954;2022-11-21T16:07:37;8.80;59.80
37232;DHT22;23125;48.156;15.954;2022-11-21T16:10:03;8.80;59.80
37232;DHT22;23125;48.156;15.954;2022-11-21T16:12:29;8.70;59.70
37232;DHT22;23125;48.156;15.954;2022-11-21T16:14:55;8.60;59.70
37232;DHT22;23125;48.156;15.954;2022-11-21T16:17:21;8.60;59.70
37232;DHT22;23125;48.156;15.954;2022-11-21T16:19:47;8.50;59.70
37232;DHT22;23125;48.156;15.954;2022-11-21T16:22:12;8.40;59.70
37232;DHT22;23125;48.156;15.954;2022-11-21T16:24:38;8.40;59.70
37232;DHT22;23125;48.156;15.954;2022-11-21T16:27:04;8.30;59.60
37232;DHT22;23125;48.156;15.954;2022-11-21T16:29:30;8.20;59.60
37232;DHT22;23125;48.156;15.954;2022-11-21T16:31:56;8.20;59.60
37232;DHT22;23125;48.156;15.954;2022-11-21T16:34:22;8.10;60.20
37232;DHT22;23125;48.156;15.954;2022-11-21T16:36:48;8.00;59.70
37232;DHT22;23125;48.156;15.954;2022-11-21T16:39:13;7.90;59.70
37232;DHT22;23125;48.156;15.954;2022-11-21T16:41:39;7.90;59.70
37232;DHT22;23125;48.156;15.954;2022-11-21T16:44:11;7.80;59.70
37232;DHT22;23125;48.156;15.954;2022-11-21T16:46:42;7.80;59.70
37232;DHT22;23125;48.156;15.954;2022-11-21T16:49:08;7.80;59.70
37232;DHT22;23125;48.156;15.954;2022-11-21T16:51:34;7.70;59.70
37232;DHT22;23125;48.156;15.954;2022-11-21T16:54:00;7.70;59.70
37232;DHT22;23125;48.156;15.954;2022-11-21T16:56:26;7.60;59.70
37232;DHT22;23125;48.156;15.954;2022-11-21T16:58:52;7.60;59.70
37232;DHT22;23125;48.156;15.954;2022-11-21T17:01:23;7.50;59.70
37232;DHT22;23125;48.156;15.954;2022-11-21T17:03:50;7.50;59.70
37232;DHT22;23125;48.156;15.954;2022-11-21T17:06:19;7.40;59.60
37232;DHT22;23125;48.156;15.954;2022-11-21T17:08:46;7.30;59.60
37232;DHT22;23125;48.156;15.954;2022-11-21T17:11:16;7.30;59.60
37232;DHT22;23125;48.156;15.954;2022-11-21T17:13:43;7.20;59.60
37232;DHT22;23125;48.156;15.954;2022-11-21T17:16:10;7.20;59.70
37232;DHT22;23125;48.156;15.954;2022-11-21T17:18:36;7.10;59.60
37232;DHT22;23125;48.156;15.954;2022-11-21T17:21:07;7.10;59.70
37232;DHT22;23125;48.156;15.954;2022-11-21T17:23:35;7.00;59.60
37232;DHT22;23125;48.156;15.954;2022-11-21T17:26:05;7.00;59.60
37232;DHT22;23125;48.156;15.954;2022-11-21T17:28:32;6.90;59.60
37232;DHT22;23125;48.156;15.954;2022-11-21T17:30:58;6.90;59.60
37232;DHT22;23125;48.156;15.954;2022-11-21T17:33:24;6.90;59.60
37232;DHT22;23125;48.156;15.954;2022-11-21T17:35:51;6.80;59.60
37232;DHT22;23125;48.156;15.954;2022-11-21T17:38:17;6.80;59.60
37232;DHT22;23125;48.156;15.954;2022-11-21T17:40:45;6.80;59.60
37232;DHT22;23125;48.156;15.954;2022-11-21T17:43:11;6.70;59.60
37232;DHT22;23125;48.156;15.954;2022-11-21T17:45:37;6.70;59.50
37232;DHT22;23125;48.156;15.954;2022-11-21T17:48:03;6.60;59.50
37232;DHT22;23125;48.156;15.954;2022-11-21T17:50:29;6.60;59.60
37232;DHT22;23125;48.156;15.954;2022-11-21T17:52:56;6.60;59.60
37232;DHT22;23125;48.156;15.954;2022-11-21T17:55:22;6.50;59.60
37232;DHT22;23125;48.156;15.954;2022-11-21T17:57:47;6.50;59.70
37232;DHT22;23125;48.156;15.954;2022-11-21T18:00:14;6.50;59.70
37232;DHT22;23125;48.156;15.954;2022-11-21T18:02:40;6.40;59.60
37232;DHT22;23125;48.156;15.954;2022-11-21T18:05:05;6.40;59.70
37232;DHT22;23125;48.156;15.954;2022-11-21T18:07:33;6.30;59.60
37232;DHT22;23125;48.156;15.954;2022-11-21T18:09:59;6.30;59.70
37232;DHT22;23125;48.156;15.954;2022-11-21T18:12:25;6.30;59.70